Time;durP1;ratioP1;P1;durP2;ratioP2;P2;SDS_P1;SDS_P2;PMS_P1;PMS_P2;Temp;Humidity;BMP_temperature;BMP_pressure;BME280_temperature;BME280_humidity;BME280_pressure;Samples;Min_cycle;Max_cycle;Signal;HPM_P1;HPM_P2
2021/06/03 05:06:47;;;;;;;12.25;4.90;;;;;;;17.82;51.29;99156.27;1755499;78;21524;-49
2021/06/03 05:09:15;;;;;;;12.28;4.92;;;;;;;17.91;51.64;99156.13;1766869;80;21011;-50
2021/06/03 05:11:43;;;;;;;8.60;4.08;;;;;;;18.39;50.70;99159.86;1761221;81;21520;-48
2021/06/03 05:14:12;;;;;;;12.23;4.87;;;;;;;19.06;48.95;99158.11;1755667;80;21015;-50
2021/06/03 05:16:41;;;;;;;11.83;4.37;;;;;;;19.40;47.92;99159.16;1754199;82;22174;-52
2021/06/03 05:19:09;;;;;;;11.20;4.22;;;;;;;19.16;48.86;99161.40;1754240;82;21506;-47
2021/06/03 05:21:39;;;;;;;9.20;4.25;;;;;;;18.92;48.54;99166.26;1754666;82;20991;-50
2021/06/03 05:24:07;;;;;;;10.40;4.58;;;;;;;18.72;48.33;99167.44;1754183;82;21588;-52
2021/06/03 05:26:35;;;;;;;11.33;4.25;;;;;;;18.82;49.12;99169.67;1749719;80;21489;-51
2021/06/03 05:29:04;;;;;;;8.30;4.20;;;;;;;19.46;48.40;99172.02;1752268;82;21478;-50
2021/06/03 05:31:31;;;;;;;12.68;4.20;;;;;;;20.10;45.83;99169.95;1752249;80;21059;-54
2021/06/03 05:33:59;;;;;;;13.00;5.00;;;;;;;20.59;44.54;99171.47;1745824;80;21055;-49
2021/06/03 05:36:27;;;;;;;11.57;4.42;;;;;;;20.99;43.45;99169.87;1761130;80;21019;-49
2021/06/03 05:38:55;;;;;;;9.23;4.00;;;;;;;21.32;42.13;99165.33;1771744;80;21004;-51
2021/06/03 05:41:22;;;;;;;8.18;4.17;;;;;;;21.44;41.87;99175.23;1768800;80;21028;-49
2021/06/03 05:43:50;;;;;;;12.85;4.25;;;;;;;21.62;41.49;99173.88;1774449;80;20984;-50
2021/06/03 05:46:17;;;;;;;10.38;4.05;;;;;;;21.77;41.23;99178.92;1745645;80;21066;-48
2021/06/03 05:48:46;;;;;;;9.40;3.87;;;;;;;21.85;41.14;99172.98;1750472;80;21007;-49
2021/06/03 05:51:14;;;;;;;12.03;3.95;;;;;;;22.02;41.39;99172.11;1753822;82;21036;-48
2021/06/03 05:53:42;;;;;;;11.43;4.05;;;;;;;22.22;39.69;99172.60;1758766;80;21436;-48
2021/06/03 05:56:10;;;;;;;11.68;4.17;;;;;;;22.26;39.54;99173.13;1748313;81;21015;-47
2021/06/03 05:58:38;;;;;;;11.20;4.10;;;;;;;22.28;38.90;99181.44;1755636;80;21518;-47
2021/06/03 06:01:06;;;;;;;7.92;4.00;;;;;;;22.28;40.04;99174.72;1753822;82;21483;-48
2021/06/03 06:03:41;;;;;;;7.03;3.55;;;;;;;22.36;39.51;99178.95;1752677;80;21027;-51
2021/06/03 06:08:40;;;;;;;11.60;3.47;;;;;;;22.52;39.07;99183.16;1756106;81;21019;-49
2021/06/03 06:11:08;;;;;;;8.83;3.67;;;;;;;22.51;38.46;99183.45;1733647;81;21488;-48
2021/06/03 06:13:36;;;;;;;10.40;3.20;;;;;;;22.47;37.79;99182.39;1742934;81;21497;-53
2021/06/03 06:16:06;;;;;;;9.43;4.10;;;;;;;22.45;38.24;99182.67;1756388;81;21484;-54
2021/06/03 06:18:34;;;;;;;6.33;3.30;;;;;;;22.37;38.54;99180.59;1759443;81;21030;-51
2021/06/03 06:21:04;;;;;;;8.68;3.60;;;;;;;22.39;37.48;99187.81;1758152;81;21503;-50
2021/06/03 06:23:35;;;;;;;12.40;3.98;;;;;;;22.43;37.63;99183.51;1757491;81;21498;-49
2021/06/03 06:26:04;;;;;;;11.00;3.92;;;;;;;22.57;37.41;99188.25;1759688;81;21066;-50
2021/06/03 06:28:31;;;;;;;8.20;3.70;;;;;;;22.69;36.82;99194.88;1746215;81;21508;-49
2021/06/03 06:30:59;;;;;;;10.78;3.60;;;;;;;22.74;37.69;99189.48;1728092;83;21057;-49
2021/06/03 06:33:28;;;;;;;7.05;3.30;;;;;;;22.91;37.51;99193.16;1728129;83;21029;-50
2021/06/03 06:35:55;;;;;;;10.32;3.25;;;;;;;23.07;36.36;99201.91;1741573;81;21012;-49
2021/06/03 06:38:24;;;;;;;9.00;3.20;;;;;;;22.96;36.60;99190.43;1741155;81;21525;-48
2021/06/03 06:40:52;;;;;;;8.50;3.60;;;;;;;22.84;36.01;99192.64;1730184;81;21039;-49
2021/06/03 06:43:19;;;;;;;8.50;3.40;;;;;;;22.83;36.60;99231.36;1695715;83;21047;-50
2021/06/03 06:45:47;;;;;;;8.78;3.27;;;;;;;22.85;35.48;99192.90;1736110;81;20988;-47
2021/06/03 06:48:16;;;;;;;6.03;3.37;;;;;;;22.78;34.91;99193.77;1759260;81;21008;-49
2021/06/03 06:50:46;;;;;;;9.80;3.52;;;;;;;22.68;35.30;99201.34;1759450;81;21443;-48
2021/06/03 06:53:15;;;;;;;8.65;3.60;;;;;;;22.79;35.65;99200.20;1755840;81;21063;-50
2021/06/03 06:55:45;;;;;;;8.50;3.35;;;;;;;22.92;35.72;99204.70;1759372;81;21080;-47
2021/06/03 06:58:13;;;;;;;8.73;3.12;;;;;;;22.91;36.39;99195.84;1755088;81;21026;-50
2021/06/03 07:00:43;;;;;;;5.78;3.30;;;;;;;23.01;33.89;99229.92;1753418;81;21023;-51
2021/06/03 07:03:11;;;;;;;11.25;4.40;;;;;;;23.00;33.58;99200.09;1757219;81;21066;-49
2021/06/03 07:05:40;;;;;;;11.45;3.92;;;;;;;;;;1731735;81;21127;-48
2021/06/03 07:08:08;;;;;;;10.80;3.80;;;;;;;22.68;34.00;99218.01;1746151;81;21023;-49
2021/06/03 07:10:36;;;;;;;9.98;3.50;;;;;;;22.54;34.38;99212.45;1748689;81;21029;-50
2021/06/03 07:13:04;;;;;;;10.05;3.30;;;;;;;22.51;34.87;99204.40;1729991;81;21057;-50
2021/06/03 07:15:31;;;;;;;6.50;3.02;;;;;;;22.53;34.39;99214.31;1741891;81;21023;-51
2021/06/03 07:18:00;;;;;;;9.78;3.40;;;;;;;22.47;33.40;99199.85;1728388;81;21520;-51
2021/06/03 07:20:27;;;;;;;7.62;3.40;;;;;;;22.39;34.40;99195.88;1731631;82;21075;-52
2021/06/03 07:23:00;;;;;;;9.58;3.65;;;;;;;22.36;34.03;99197.75;1736955;81;21101;-50
2021/06/03 07:25:27;;;;;;;8.38;3.62;;;;;;;22.40;34.52;99216.27;1738044;81;21024;-49
2021/06/03 07:27:57;;;;;;;10.88;3.35;;;;;;;22.43;34.46;99194.25;1742166;81;21016;-48
2021/06/03 07:30:25;;;;;;;7.87;3.10;;;;;;;22.32;33.87;99190.55;1736465;81;21001;-50
2021/06/03 07:32:54;;;;;;;15.25;3.52;;;;;;;22.16;33.66;99213.98;1710050;83;21062;-49
2021/06/03 07:35:22;;;;;;;7.28;3.17;;;;;;;22.10;34.71;99188.23;1727355;82;21017;-48
2021/06/03 07:37:50;;;;;;;7.78;3.52;;;;;;;22.16;33.76;99197.33;1714587;82;21507;-47
2021/06/03 07:40:22;;;;;;;7.75;3.05;;;;;;;22.01;33.29;99206.20;1729013;82;20993;-48
2021/06/03 07:42:49;;;;;;;7.28;3.40;;;;;;;21.66;33.74;99216.50;1713109;83;20962;-49
2021/06/03 07:45:23;;;;;;;9.05;3.27;;;;;;;21.36;34.28;99208.50;1723328;82;21480;-48
2021/06/03 07:47:55;;;;;;;7.95;3.15;;;;;;;21.12;34.50;99196.96;1743371;81;21027;-49
2021/06/03 07:50:28;;;;;;;12.55;3.30;;;;;;;20.97;34.88;99201.50;1742554;81;20992;-48
2021/06/03 07:52:56;;;;;;;10.40;3.58;;;;;;;20.84;34.61;99204.98;1693602;81;21488;-50
2021/06/03 07:55:24;;;;;;;7.17;3.25;;;;;;;20.64;34.78;99195.05;1719302;83;21040;-50
2021/06/03 07:57:58;;;;;;;12.00;3.70;;;;;;;20.49;35.74;99194.20;1695160;83;21402;-48
2021/06/03 08:00:28;;;;;;;12.00;3.35;;;;;;;20.39;35.29;99199.77;1748816;82;21023;-50
2021/06/03 08:02:55;;;;;;;10.78;3.20;;;;;;;20.32;35.36;99196.53;1759929;81;20987;-49
2021/06/03 08:05:24;;;;;;;10.90;3.15;;;;;;;20.27;36.30;99201.06;1754572;80;21130;-47
2021/06/03 08:07:54;;;;;;;12.28;3.08;;;;;;;20.14;35.90;99200.48;1756145;81;21455;-48
2021/06/03 08:10:25;;;;;;;6.22;3.10;;;;;;;20.10;34.92;99207.95;1723169;83;21082;-50
2021/06/03 08:12:53;;;;;;;6.20;3.22;;;;;;;20.02;35.58;99213.28;1749020;82;21023;-49
2021/06/03 08:15:21;;;;;;;10.38;3.58;;;;;;;19.98;36.27;99202.02;1748725;82;21123;-49
2021/06/03 08:17:51;;;;;;;16.42;3.60;;;;;;;19.85;36.40;99222.83;1758290;81;20999;-50
2021/06/03 08:20:22;;;;;;;7.15;3.42;;;;;;;19.72;37.05;99190.37;1759656;81;21114;-48
2021/06/03 08:22:49;;;;;;;7.40;3.00;;;;;;;19.63;36.60;99209.59;1730445;81;20983;-49
2021/06/03 08:25:18;;;;;;;9.78;3.55;;;;;;;19.57;36.60;99205.25;1758937;81;21622;-49
2021/06/03 08:27:45;;;;;;;8.73;3.55;;;;;;;19.55;36.58;99206.02;1759301;81;21034;-49
2021/06/03 08:30:14;;;;;;;7.25;3.25;;;;;;;19.60;37.48;99217.31;1758684;81;21046;-48
2021/06/03 08:32:47;;;;;;;4.47;2.98;;;;;;;19.64;37.26;99203.70;1759835;81;20987;-49
2021/06/03 08:35:16;;;;;;;13.18;3.27;;;;;;;19.58;36.07;99204.70;1759612;81;21569;-48
2021/06/03 08:37:45;;;;;;;7.62;3.55;;;;;;;19.56;36.80;99211.66;1759473;81;20976;-48
2021/06/03 08:40:15;;;;;;;7.03;3.30;;;;;;;19.64;37.24;99209.05;1757687;81;21514;-49
2021/06/03 08:42:42;;;;;;;7.40;3.30;;;;;;;19.72;36.91;99221.13;1723656;83;21024;-48
2021/06/03 08:45:12;;;;;;;8.85;3.15;;;;;;;19.71;36.93;99216.84;1745683;82;21475;-48
2021/06/03 08:47:41;;;;;;;;;;;;;;;19.53;37.02;99206.81;1742822;82;21459;-48
2021/06/03 08:50:11;;;;;;;9.33;3.15;;;;;;;19.43;37.55;99200.05;1742753;82;20102;-47
2021/06/03 08:52:40;;;;;;;11.05;3.00;;;;;;;19.49;36.67;99200.36;1756525;81;21001;-49
2021/06/03 08:55:13;;;;;;;7.87;2.87;;;;;;;19.58;36.57;99184.66;1751690;81;21035;-46
2021/06/03 08:57:38;;;;;;;8.93;3.42;;;;;;;19.75;36.82;99200.03;1759476;81;21034;-50
2021/06/03 09:00:08;;;;;;;6.28;3.17;;;;;;;19.98;35.84;99209.52;1759765;81;20999;-49
2021/06/03 09:02:36;;;;;;;10.85;3.60;;;;;;;20.03;35.49;99189.47;1722419;82;21487;-50
2021/06/03 09:05:06;;;;;;;7.47;3.70;;;;;;;19.95;35.86;99191.83;1752973;81;21525;-51
2021/06/03 09:07:38;;;;;;;6.47;3.40;;;;;;;19.85;36.05;99201.42;1737159;81;21579;-53
2021/06/03 09:10:34;;;;;;;6.05;3.10;;;;;;;19.81;35.20;99214.23;1759115;81;21074;-47
2021/06/03 09:13:15;;;;;;;7.87;3.55;;;;;;;19.89;34.84;99193.13;1759760;81;21545;-47
2021/06/03 09:15:48;;;;;;;7.97;3.00;;;;;;;20.01;36.32;99215.66;1759874;81;21179;-49
2021/06/03 09:18:19;;;;;;;10.85;3.08;;;;;;;20.04;36.28;99199.64;1738690;81;21034;-47
2021/06/03 09:20:48;;;;;;;10.53;3.17;;;;;;;19.95;35.11;99210.55;1727252;83;21647;-50
2021/06/03 09:23:29;;;;;;;7.37;3.30;;;;;;;19.80;36.03;99191.23;1727448;83;21097;-48
2021/06/03 09:25:57;;;;;;;;;;;;;;;19.81;36.62;99186.95;1730559;83;21068;-50
2021/06/03 09:28:32;;;;;;;8.33;3.45;;;;;;;19.95;37.04;99179.78;1727578;83;20432;-50
2021/06/03 09:31:07;;;;;;;7.50;3.17;;;;;;;20.09;36.83;99189.76;1751636;81;21033;-47
2021/06/03 09:33:46;;;;;;;9.60;3.05;;;;;;;20.13;36.26;99188.18;1741759;82;21517;-47
2021/06/03 09:36:20;;;;;;;7.62;2.83;;;;;;;20.13;35.38;99188.18;1754955;82;21042;-50
2021/06/03 09:38:57;;;;;;;9.45;3.00;;;;;;;20.07;34.34;99190.56;1754697;81;21017;-52
2021/06/03 09:41:29;;;;;;;10.38;3.20;;;;;;;20.09;35.17;99190.30;1750177;81;21093;-53
2021/06/03 09:44:11;;;;;;;9.65;3.47;;;;;;;20.31;36.15;99203.50;1729550;83;21132;-51
2021/06/03 09:46:44;;;;;;;5.97;2.90;;;;;;;20.37;35.32;99183.70;1722375;83;21061;-48
2021/06/03 09:49:16;;;;;;;6.15;3.47;;;;;;;20.21;35.60;99179.37;1729479;83;21010;-49
2021/06/03 09:51:45;;;;;;;16.67;3.47;;;;;;;20.15;36.44;99187.38;1729521;83;21045;-52
2021/06/03 09:54:19;;;;;;;3.85;2.80;;;;;;;20.26;36.07;99192.77;1729099;81;20967;-50
2021/06/03 09:56:57;;;;;;;7.75;3.00;;;;;;;20.36;35.51;99183.44;1679375;83;21062;-56
2021/06/03 09:59:30;;;;;;;7.62;3.08;;;;;;;20.48;33.97;99180.55;1701559;83;21038;-48
2021/06/03 10:02:14;;;;;;;4.42;2.67;;;;;;;20.55;35.45;99203.86;1729737;83;21493;-50
2021/06/03 10:04:47;;;;;;;8.73;3.30;;;;;;;20.58;34.71;99187.25;1729333;83;21558;-50
2021/06/03 10:07:23;;;;;;;10.32;3.25;;;;;;;20.51;35.16;99188.05;1726281;81;21547;-51
2021/06/03 10:10:11;;;;;;;14.03;3.22;;;;;;;20.39;35.01;99190.39;1723512;83;21026;-50
2021/06/03 10:12:45;;;;;;;7.78;2.92;;;;;;;20.33;35.65;99182.61;1713108;83;21031;-49
2021/06/03 10:15:23;;;;;;;6.67;3.00;;;;;;;20.27;35.02;99180.45;1723117;83;21070;-50
2021/06/03 10:18:04;;;;;;;4.58;2.80;;;;;;;20.31;35.28;99198.14;1727583;81;21581;-50
2021/06/03 10:20:36;;;;;;;8.75;3.17;;;;;;;20.42;34.75;99180.51;1754541;82;21043;-49
2021/06/03 10:23:18;;;;;;;5.97;2.95;;;;;;;20.57;34.63;99177.61;1751004;81;21012;-48
2021/06/03 10:25:49;;;;;;;4.72;3.02;;;;;;;20.74;35.08;99189.42;1724537;83;21075;-48
2021/06/03 10:28:19;;;;;;;7.70;3.02;;;;;;;20.87;33.71;99174.98;1748401;82;21050;-52
2021/06/03 10:30:55;;;;;;;5.47;2.80;;;;;;;20.92;34.86;99174.97;1716418;83;21035;-53
2021/06/03 10:33:26;;;;;;;8.63;2.95;;;;;;;20.90;33.32;99211.15;1753772;82;21023;-50
2021/06/03 10:35:56;;;;;;;;;;;;;;;20.66;33.54;99182.19;1739107;82;21034;-54
2021/06/03 10:38:23;;;;;;;4.22;2.85;;;;;;;20.64;33.34;99170.11;1754697;82;20428;-58
2021/06/03 10:40:58;;;;;;;5.58;3.47;;;;;;;20.78;33.28;99185.95;1736186;82;21051;-54
2021/06/03 10:43:28;;;;;;;7.35;2.62;;;;;;;20.95;32.13;99183.82;1723376;82;21079;-56
2021/06/03 10:45:55;;;;;;;4.30;2.60;;;;;;;21.08;33.34;99169.08;1713844;83;20969;-55
2021/06/03 10:48:24;;;;;;;7.03;3.00;;;;;;;21.26;33.34;99207.94;1750629;82;21060;-56
2021/06/03 10:50:53;;;;;;;4.37;2.62;;;;;;;21.29;32.93;99199.91;1744706;82;21548;-58
2021/06/03 10:53:28;;;;;;;8.73;2.83;;;;;;;21.05;32.36;99180.89;1754360;82;21041;-56
2021/06/03 10:56:10;;;;;;;7.78;3.00;;;;;;;20.75;32.69;99175.75;1738223;82;21031;-57
2021/06/03 10:58:39;;;;;;;7.03;2.90;;;;;;;20.69;34.14;99188.34;1713369;84;21064;-56
2021/06/03 11:01:12;;;;;;;5.55;3.05;;;;;;;20.87;33.26;99188.89;1717435;82;20996;-57
2021/06/03 11:03:50;;;;;;;8.73;3.02;;;;;;;21.03;32.99;99174.44;1725964;83;21011;-59
2021/06/03 11:06:23;;;;;;;4.33;2.98;;;;;;;21.19;34.03;99167.20;1751545;82;21118;-57
2021/06/03 11:09:02;;;;;;;5.37;2.58;;;;;;;21.29;33.16;99177.12;1730841;82;21158;-57
2021/06/03 11:11:43;;;;;;;6.25;2.83;;;;;;;21.25;32.87;99164.78;1715460;82;21101;-53
2021/06/03 11:14:20;;;;;;;6.12;2.55;;;;;;;21.25;33.36;99166.12;1723211;83;21533;-55
2021/06/03 11:16:53;;;;;;;9.50;2.77;;;;;;;21.33;32.13;99163.45;1724078;83;21049;-59
2021/06/03 11:19:29;;;;;;;6.12;2.62;;;;;;;21.45;32.17;99165.33;1720343;82;21142;-58
2021/06/03 11:22:04;;;;;;;5.92;2.80;;;;;;;21.57;32.72;99152.42;1724142;82;21552;-55
2021/06/03 11:24:39;;;;;;;7.78;2.80;;;;;;;21.66;33.06;99172.77;1719973;83;20995;-56
2021/06/03 11:27:15;;;;;;;7.20;3.00;;;;;;;21.69;31.30;99176.27;1722949;83;21534;-58
2021/06/03 11:29:55;;;;;;;9.40;3.08;;;;;;;21.47;30.97;99158.61;1712336;84;21048;-54
2021/06/03 11:32:33;;;;;;;6.72;2.30;;;;;;;21.34;31.56;99168.56;1708422;83;21576;-54
2021/06/03 11:35:07;;;;;;;4.90;2.80;;;;;;;21.43;30.64;99166.12;1710158;84;21585;-54
2021/06/03 11:37:43;;;;;;;11.03;3.10;;;;;;;21.54;31.07;99182.45;1724763;83;21075;-54
2021/06/03 11:40:25;;;;;;;4.22;2.50;;;;;;;21.67;31.81;99163.64;1723158;83;21463;-53
2021/06/03 11:42:58;;;;;;;3.05;2.80;;;;;;;21.74;32.24;99159.62;1725244;82;21091;-52
2021/06/03 11:45:44;;;;;;;7.62;2.67;;;;;;;21.74;31.90;99176.26;1727164;82;21051;-47
2021/06/03 11:48:17;;;;;;;6.58;2.60;;;;;;;21.63;31.10;99177.36;1712616;84;20976;-55
2021/06/03 11:50:50;;;;;;;6.95;2.50;;;;;;;21.52;31.30;99169.87;1713022;83;21024;-51
2021/06/03 11:53:21;;;;;;;4.92;2.35;;;;;;;21.61;31.59;99187.54;1712913;84;21083;-54
2021/06/03 11:55:52;;;;;;;;;;;;;;;21.61;31.58;99195.05;1712923;83;21480;-51
2021/06/03 11:58:33;;;;;;;5.28;2.92;;;;;;;21.45;31.96;99162.11;1706300;83;20401;-52
2021/06/03 12:01:06;;;;;;;7.17;3.05;;;;;;;21.49;32.61;99161.02;1704140;83;21590;-51
2021/06/03 12:03:38;;;;;;;7.28;2.90;;;;;;;21.63;31.18;99158.04;1697643;83;21029;-54
2021/06/03 12:06:12;;;;;;;12.53;3.12;;;;;;;21.55;31.84;99180.04;1714077;82;21032;-49
2021/06/03 12:08:51;;;;;;;5.20;2.60;;;;;;;21.28;32.56;99161.57;1744414;81;22225;-54
2021/06/03 12:11:42;;;;;;;6.37;2.90;;;;;;;21.05;33.52;99164.81;1759404;81;21054;-50
2021/06/03 12:14:20;;;;;;;7.42;2.67;;;;;;;20.90;34.15;99187.84;1759392;81;20995;-52
2021/06/03 12:16:58;;;;;;;10.90;2.90;;;;;;;20.87;31.61;99180.34;1753181;81;21039;-52
2021/06/03 12:19:32;;;;;;;5.97;2.80;;;;;;;20.88;31.47;99167.22;1761877;81;22274;-50
2021/06/03 12:22:11;;;;;;;10.53;2.67;;;;;;;20.91;31.79;99192.12;1754815;82;21091;-53
2021/06/03 12:24:43;;;;;;;5.78;2.80;;;;;;;20.95;32.34;99197.22;1754873;82;21013;-49
2021/06/03 12:27:28;;;;;;;5.40;2.80;;;;;;;21.00;33.13;99192.41;1754332;81;21540;-48
2021/06/03 12:30:23;;;;;;;5.70;3.10;;;;;;;21.06;33.00;99191.88;1661382;83;21090;-53
2021/06/03 12:33:08;;;;;;;9.75;3.30;;;;;;;21.08;33.01;99170.95;1730687;81;21658;-53
2021/06/03 12:35:45;;;;;;;4.10;2.75;;;;;;;21.10;33.60;99193.72;1724532;83;21034;-50
2021/06/03 12:38:48;;;;;;;5.17;2.80;;;;;;;21.16;33.35;99187.83;1751448;81;21016;-50
2021/06/03 12:41:33;;;;;;;7.33;2.95;;;;;;;21.12;33.28;99177.39;1694375;85;21534;-50
2021/06/03 12:44:13;;;;;;;5.35;3.05;;;;;;;21.04;34.38;99184.08;1730378;82;21059;-51
2021/06/03 12:46:51;;;;;;;5.95;2.92;;;;;;;21.09;34.29;99184.08;1757036;82;21546;-49
2021/06/03 12:49:27;;;;;;;3.98;2.90;;;;;;;21.15;33.73;99190.24;1739440;82;21106;-53
2021/06/03 12:52:06;;;;;;;4.37;2.52;;;;;;;21.19;32.12;99177.92;1757578;81;21011;-53
2021/06/03 12:54:46;;;;;;;8.75;3.05;;;;;;;21.23;31.34;99185.70;1758651;81;21058;-53
2021/06/03 12:57:20;;;;;;;7.25;2.60;;;;;;;21.19;32.02;99202.05;1739842;81;21127;-50
2021/06/03 12:59:52;;;;;;;7.00;3.00;;;;;;;21.05;32.31;99170.17;1722562;82;21061;-52
2021/06/03 13:02:21;;;;;;;5.83;2.90;;;;;;;20.89;33.04;99174.72;1742451;82;21002;-49
2021/06/03 13:04:53;;;;;;;8.03;3.17;;;;;;;20.73;33.91;99175.23;1724531;81;21058;-47
2021/06/03 13:07:30;;;;;;;6.53;2.63;;;;;;;20.60;34.47;99183.25;1727287;81;21462;-53
2021/06/03 13:10:10;;;;;;;8.20;2.90;;;;;;;20.52;34.33;99209.73;1716185;83;21194;-57
2021/06/03 13:13:06;;;;;;;6.20;2.70;;;;;;;20.45;34.65;99174.34;1717200;81;20945;-50
2021/06/03 13:15:37;;;;;;;6.35;2.90;;;;;;;20.40;35.35;99172.45;1716920;82;20997;-53
2021/06/03 13:18:07;;;;;;;3.42;2.80;;;;;;;20.38;35.07;99171.38;1693089;83;21001;-47
2021/06/03 13:20:53;;;;;;;7.78;3.10;;;;;;;20.43;35.08;99190.68;1748736;81;21503;-49
2021/06/03 13:23:24;;;;;;;6.42;3.20;;;;;;;20.47;34.42;99175.70;1744139;81;21035;-53
2021/06/03 13:25:53;;;;;;;11.50;4.60;;;;;;;20.48;34.78;99177.34;1759059;81;21191;-49
2021/06/03 13:28:25;;;;;;;;;;;;;;;20.55;35.21;99177.08;1762238;81;20995;-49
2021/06/03 13:30:55;;;;;;;11.48;6.03;;;;;;;20.62;34.96;99171.73;1759748;81;20421;-49
2021/06/03 13:33:27;;;;;;;8.28;3.35;;;;;;;20.68;34.89;99179.23;1755654;81;21015;-49
2021/06/03 13:35:57;;;;;;;;;;;;;;;20.67;35.05;99169.59;1762987;81;21507;-51
2021/06/03 13:38:25;;;;;;;17.15;6.70;;;;;;;20.74;34.66;99190.22;1720778;83;20169;-56
2021/06/03 13:40:54;;;;;;;12.30;4.40;;;;;;;20.77;34.88;99170.95;1720533;83;21050;-54
2021/06/03 13:43:25;;;;;;;5.97;3.27;;;;;;;20.81;35.34;99174.69;1760153;81;20966;-54
2021/06/03 13:46:05;;;;;;;12.60;5.20;;;;;;;20.89;35.22;99180.07;1760102;81;21003;-51
2021/06/03 13:48:39;;;;;;;20.77;7.90;;;;;;;20.88;35.95;99175.25;1760113;81;20991;-56
2021/06/03 13:51:13;;;;;;;8.83;3.60;;;;;;;20.92;35.42;99176.30;1759803;81;21171;-60
2021/06/03 13:53:46;;;;;;;10.60;3.77;;;;;;;20.95;34.95;99197.22;1759688;81;21086;-46
2021/06/03 13:56:26;;;;;;;8.35;3.72;;;;;;;20.89;34.79;99207.67;1759435;81;20991;-55
2021/06/03 13:59:01;;;;;;;14.85;6.03;;;;;;;20.78;34.29;99177.11;1723226;83;21501;-50
